KFAM/FAM METAR and TAF weather

Enter ICAO airport designator
Station Type Date Time Source
KFAM METAR 2021/05/12 03:56 UTC NOAA

KFAM 120356Z AUTO 04007KT 10SM OVC090 11/03 A3030 RMK AO2 SLP268 T01110033


Station Type Date Time Source
KFAM Decoded METAR 2021/05/12 03:56 UTC NOAA

Farmington Airport, MO, United States (KFAM) 37-46N 090-26W
May 11, 2021 - 11:56 PM EDT / 2021.05.12 0356 UTC
Wind: from the NE (040 degrees) at 8 MPH (7 KT):0
Visibility: 10 mile(s):0
Sky conditions: overcast
Temperature: 52.0 F (11.1 C)
Dew Point: 37.9 F (3.3 C)
Relative Humidity: 58%
Pressure (altimeter): 30.3 in. Hg (1026 hPa)
ob: KFAM 120356Z AUTO 04007KT 10SM OVC090 11/03 A3030 RMK AO2 SLP268 T01110033
cycle: 4

Station Type Date Time Source
KFAM TAF UTC NOAA

Error!

Example: see airport list